createdAt,value
2023-04-09T00:01:13.549Z,4.50
2023-04-09T00:03:41.411Z,7.70
2023-04-09T00:06:14.723Z,4.87
2023-04-09T00:08:42.428Z,7.00
2023-04-09T00:11:10.357Z,9.17
2023-04-09T00:13:43.394Z,8.03
2023-04-09T00:16:11.183Z,10.73
2023-04-09T00:18:38.974Z,7.93
2023-04-09T00:21:11.318Z,7.57
2023-04-09T00:23:39.916Z,5.77
2023-04-09T00:26:07.804Z,6.37
2023-04-09T00:28:37.944Z,10.13
2023-04-09T00:31:07.404Z,5.75
2023-04-09T00:33:35.323Z,9.55
2023-04-09T00:36:04.956Z,5.27
2023-04-09T00:38:34.998Z,12.52
2023-04-09T00:41:02.739Z,5.50
2023-04-09T00:43:32.617Z,5.80
2023-04-09T00:46:03.012Z,7.70
2023-04-09T00:51:01.823Z,5.03
2023-04-09T00:53:31.923Z,5.15
2023-04-09T00:55:59.780Z,4.80
2023-04-09T00:58:27.625Z,5.47
2023-04-09T01:00:57.653Z,4.90
2023-04-09T01:03:25.822Z,4.50
2023-04-09T01:06:18.331Z,6.83
2023-04-09T01:08:52.820Z,8.13
2023-04-09T01:11:32.365Z,4.43
2023-04-09T01:14:09.785Z,5.40
2023-04-09T01:16:47.840Z,6.17
2023-04-09T01:19:27.734Z,5.33
2023-04-09T01:22:01.873Z,2.88
2023-04-09T01:24:42.643Z,5.07
2023-04-09T01:27:16.509Z,6.70
2023-04-09T01:29:48.809Z,10.23
2023-04-09T01:32:19.781Z,5.03
2023-04-09T01:34:48.848Z,6.93
2023-04-09T01:37:18.226Z,6.70
2023-04-09T01:39:50.336Z,5.17
2023-04-09T01:42:19.510Z,5.63
2023-04-09T01:44:49.819Z,10.47
2023-04-09T01:47:19.496Z,8.93
2023-04-09T01:49:47.586Z,9.18
2023-04-09T01:52:17.600Z,5.50
2023-04-09T01:54:47.188Z,7.90
2023-04-09T01:57:14.915Z,10.70
2023-04-09T01:59:42.803Z,8.90
2023-04-09T02:02:20.714Z,5.80
2023-04-09T02:04:58.705Z,6.23
2023-04-09T02:07:35.350Z,11.63
2023-04-09T02:10:07.765Z,6.57
2023-04-09T02:12:40.326Z,11.77
2023-04-09T02:15:09.623Z,6.63
2023-04-09T02:17:41.166Z,6.73
2023-04-09T02:20:10.382Z,8.60
2023-04-09T02:22:38.104Z,6.23
2023-04-09T02:25:08.415Z,5.43
2023-04-09T02:27:40.428Z,4.53
2023-04-09T02:30:09.448Z,4.90
2023-04-09T02:32:38.595Z,8.27
2023-04-09T02:35:10.793Z,7.00
2023-04-09T02:37:38.499Z,5.43
2023-04-09T02:40:07.035Z,5.80
2023-04-09T02:42:41.254Z,4.17
2023-04-09T02:45:10.059Z,8.40
2023-04-09T02:47:39.163Z,6.63
2023-04-09T02:50:11.652Z,7.13
2023-04-09T02:52:39.368Z,7.43
2023-04-09T02:55:08.302Z,5.07
2023-04-09T02:57:42.255Z,5.90
2023-04-09T03:00:11.252Z,14.47
2023-04-09T03:02:40.538Z,3.93
2023-04-09T03:05:12.851Z,6.70
2023-04-09T03:07:40.584Z,10.83
2023-04-09T03:10:08.989Z,6.60
2023-04-09T03:12:42.980Z,7.60
2023-04-09T03:15:11.623Z,7.90
2023-04-09T03:17:41.148Z,8.40
2023-04-09T03:20:13.492Z,5.00
2023-04-09T03:22:41.271Z,5.83
2023-04-09T03:25:10.000Z,4.50
2023-04-09T03:27:44.356Z,4.50
2023-04-09T03:30:13.072Z,8.33
2023-04-09T03:32:42.274Z,8.93
2023-04-09T03:35:14.518Z,8.23
2023-04-09T03:37:42.264Z,3.73
2023-04-09T03:40:10.899Z,6.63
2023-04-09T03:42:45.629Z,5.87
2023-04-09T03:45:13.297Z,6.50
2023-04-09T03:47:42.422Z,5.40
2023-04-09T03:50:14.270Z,5.37
2023-04-09T03:52:41.984Z,7.97
2023-04-09T03:55:11.088Z,7.97
2023-04-09T03:57:42.853Z,5.40
2023-04-09T04:00:11.040Z,9.13
2023-04-09T04:02:39.005Z,5.10
2023-04-09T04:05:11.805Z,8.90
2023-04-09T04:07:39.545Z,4.30
2023-04-09T04:10:08.489Z,4.23
2023-04-09T04:12:40.586Z,4.37
2023-04-09T04:15:09.342Z,6.10
2023-04-09T04:17:37.084Z,8.80
2023-04-09T04:20:11.678Z,8.03
2023-04-09T04:22:39.380Z,5.17
2023-04-09T04:25:07.650Z,6.30
2023-04-09T04:27:39.508Z,5.97
2023-04-09T04:30:08.628Z,8.73
2023-04-09T04:32:36.471Z,7.27
2023-04-09T04:35:10.097Z,4.30
2023-04-09T04:37:37.806Z,7.20
2023-04-09T04:40:06.510Z,7.13
2023-04-09T04:42:38.455Z,7.57
2023-04-09T04:45:09.198Z,5.53
2023-04-09T04:47:36.928Z,5.90
2023-04-09T04:50:06.864Z,6.60
2023-04-09T04:52:38.826Z,3.67
2023-04-09T04:55:09.352Z,4.73
2023-04-09T05:00:08.715Z,4.20
2023-04-09T05:02:38.481Z,4.68
2023-04-09T05:05:07.045Z,4.43
2023-04-09T05:07:37.614Z,8.43
2023-04-09T05:10:07.905Z,6.73
2023-04-09T05:12:35.607Z,5.47
2023-04-09T05:15:07.025Z,8.60
2023-04-09T05:17:34.792Z,5.37
2023-04-09T05:20:02.844Z,5.90
2023-04-09T05:22:34.966Z,4.17
2023-04-09T05:25:04.854Z,3.80
2023-04-09T05:27:32.573Z,5.40
2023-04-09T05:30:02.568Z,5.13
2023-04-09T05:32:30.485Z,4.82
2023-04-09T05:34:58.177Z,4.27
2023-04-09T05:37:29.960Z,2.90
2023-04-09T05:39:58.003Z,3.33
2023-04-09T05:42:27.099Z,3.57
2023-04-09T05:44:58.789Z,3.70
2023-04-09T05:47:26.515Z,4.33
2023-04-09T05:49:54.295Z,1.90
2023-04-09T05:52:26.052Z,3.17
2023-04-09T05:54:53.932Z,2.07
2023-04-09T05:57:21.613Z,3.50
2023-04-09T05:59:54.559Z,3.77
2023-04-09T06:02:22.387Z,3.03
2023-04-09T06:04:50.722Z,4.37
2023-04-09T06:07:23.124Z,2.50
2023-04-09T06:09:51.043Z,2.10
2023-04-09T06:12:18.748Z,4.57
2023-04-09T06:14:51.882Z,3.77
2023-04-09T06:17:21.766Z,1.90
2023-04-09T06:19:49.500Z,2.97
2023-04-09T06:22:19.115Z,2.23
2023-04-09T06:24:48.964Z,4.13
2023-04-09T06:27:19.033Z,2.78
2023-04-09T06:29:48.601Z,1.65
2023-04-09T06:32:19.578Z,2.05
2023-04-09T06:34:48.292Z,3.37
2023-04-09T06:37:21.389Z,6.93
2023-04-09T06:40:00.562Z,4.40
2023-04-09T06:42:33.063Z,2.25
2023-04-09T06:45:01.092Z,1.93
2023-04-09T06:47:31.924Z,1.77
2023-04-09T06:50:01.615Z,5.47
2023-04-09T06:52:29.284Z,9.43
2023-04-09T06:54:57.211Z,3.10
2023-04-09T06:57:28.061Z,3.87
2023-04-09T06:59:55.764Z,4.47
2023-04-09T07:02:26.011Z,1.60
2023-04-09T07:04:57.082Z,7.57
2023-04-09T07:07:25.872Z,5.37
2023-04-09T07:09:54.548Z,4.53
2023-04-09T07:12:29.886Z,4.33
2023-04-09T07:15:00.073Z,2.13
2023-04-09T07:17:28.095Z,2.78
2023-04-09T07:19:59.198Z,4.93
2023-04-09T07:22:29.753Z,3.53
2023-04-09T07:24:57.669Z,4.73
2023-04-09T07:27:29.410Z,2.30
2023-04-09T07:30:00.490Z,3.47
2023-04-09T07:32:28.946Z,5.10
2023-04-09T07:34:59.485Z,4.33
2023-04-09T07:39:57.097Z,4.40
2023-04-09T07:42:26.847Z,2.47
2023-04-09T07:44:57.666Z,2.97
2023-04-09T07:47:25.588Z,2.43
2023-04-09T07:49:55.186Z,3.17
2023-04-09T07:52:26.049Z,5.18
2023-04-09T07:54:53.826Z,2.23
2023-04-09T07:57:24.581Z,3.53
2023-04-09T07:59:52.437Z,2.60
2023-04-09T08:02:20.274Z,3.17
2023-04-09T08:04:50.071Z,2.57
2023-04-09T08:07:20.052Z,2.42
2023-04-09T08:09:49.109Z,3.00
2023-04-09T08:12:16.866Z,2.30
2023-04-09T08:14:44.943Z,2.43
2023-04-09T08:17:12.667Z,2.87
2023-04-09T08:19:44.904Z,1.83
2023-04-09T08:22:12.649Z,4.13
2023-04-09T08:24:40.377Z,3.27
2023-04-09T08:27:13.954Z,3.07
2023-04-09T08:29:42.637Z,3.43
2023-04-09T08:32:10.605Z,3.53
2023-04-09T08:34:40.823Z,7.20
2023-04-09T08:37:08.575Z,4.10
2023-04-09T08:39:36.844Z,2.90
2023-04-09T08:42:07.750Z,3.07
2023-04-09T08:44:37.131Z,3.07
2023-04-09T08:47:11.813Z,4.57
2023-04-09T08:49:41.067Z,4.23
2023-04-09T08:52:08.919Z,3.67
2023-04-09T08:54:40.893Z,4.60
2023-04-09T08:57:08.802Z,5.13
2023-04-09T08:59:37.978Z,5.33
2023-04-09T09:02:09.358Z,5.23
2023-04-09T09:04:47.716Z,5.77
2023-04-09T09:07:16.251Z,3.87
2023-04-09T09:09:54.291Z,2.63
2023-04-09T09:12:41.161Z,3.67
2023-04-09T09:15:29.050Z,3.73
2023-04-09T09:18:02.087Z,4.37
2023-04-09T09:20:30.224Z,3.17
2023-04-09T09:22:58.070Z,3.63
2023-04-09T09:25:54.675Z,4.20
2023-04-09T09:28:22.393Z,3.10
2023-04-09T09:30:51.695Z,2.20
2023-04-09T09:33:23.618Z,4.80
2023-04-09T09:35:54.029Z,3.40
2023-04-09T09:40:52.639Z,3.03
2023-04-09T09:43:20.587Z,1.93
2023-04-09T09:45:49.058Z,3.23
2023-04-09T09:48:21.799Z,2.23
2023-04-09T09:50:52.958Z,1.40
2023-04-09T09:53:29.179Z,2.67
2023-04-09T09:56:01.534Z,4.53
2023-04-09T09:58:36.549Z,4.47
2023-04-09T10:01:09.465Z,1.60
2023-04-09T10:03:42.287Z,1.83
2023-04-09T10:06:11.132Z,2.40
2023-04-09T10:08:41.144Z,2.17
2023-04-09T10:11:11.162Z,3.30
2023-04-09T10:13:47.526Z,2.10
2023-04-09T10:16:18.676Z,0.90
2023-04-09T10:18:48.174Z,1.27
2023-04-09T10:21:25.207Z,1.63
2023-04-09T10:23:53.246Z,3.27
2023-04-09T10:26:27.744Z,1.70
2023-04-09T10:29:08.067Z,2.97
2023-04-09T10:32:08.463Z,1.95
2023-04-09T10:34:41.106Z,2.20
2023-04-09T10:37:12.673Z,2.53
2023-04-09T10:39:42.675Z,2.60
2023-04-09T10:42:17.700Z,1.67
2023-04-09T10:44:46.070Z,4.27
2023-04-09T10:47:33.019Z,4.03
2023-04-09T10:50:15.954Z,1.40
2023-04-09T10:52:44.574Z,1.00
2023-04-09T10:55:31.405Z,2.22
2023-04-09T10:58:03.369Z,2.27
2023-04-09T11:00:31.070Z,3.17
2023-04-09T11:03:20.861Z,2.47
2023-04-09T11:05:53.234Z,1.05
2023-04-09T11:08:22.366Z,1.70
2023-04-09T11:10:52.260Z,3.10
2023-04-09T11:13:21.936Z,3.22
2023-04-09T11:15:49.901Z,1.40
2023-04-09T11:18:21.842Z,1.37
2023-04-09T11:20:57.089Z,0.83
2023-04-09T11:23:25.560Z,0.93
2023-04-09T11:25:56.557Z,1.63
2023-04-09T11:28:25.424Z,1.50
2023-04-09T11:30:53.395Z,2.13
2023-04-09T11:33:23.551Z,1.03
2023-04-09T11:35:55.018Z,2.35
2023-04-09T11:38:22.741Z,1.60
2023-04-09T11:41:04.052Z,1.00
2023-04-09T11:43:31.857Z,0.97
2023-04-09T11:46:00.538Z,1.60
2023-04-09T11:48:31.789Z,1.00
2023-04-09T11:51:01.738Z,2.70
2023-04-09T11:53:32.498Z,5.03
2023-04-09T11:56:00.642Z,3.67
2023-04-09T11:58:28.587Z,1.83
2023-04-09T12:00:57.116Z,10.60
2023-04-09T12:03:30.341Z,3.03
2023-04-09T12:06:03.378Z,2.40
2023-04-09T12:08:34.594Z,1.80
2023-04-09T12:11:10.270Z,1.73
2023-04-09T12:13:42.830Z,2.57
2023-04-09T12:16:15.889Z,1.57
2023-04-09T12:18:43.786Z,1.53
2023-04-09T12:21:12.930Z,1.57
2023-04-09T12:23:42.770Z,1.43
2023-04-09T12:26:10.651Z,0.45
2023-04-09T12:28:38.400Z,2.77
2023-04-09T12:31:10.843Z,3.60
2023-04-09T12:33:40.423Z,3.80
2023-04-09T12:36:10.485Z,1.17
2023-04-09T12:38:41.508Z,2.63
2023-04-09T12:41:09.679Z,1.53
2023-04-09T12:43:37.545Z,2.10
2023-04-09T12:46:05.856Z,3.57
2023-04-09T12:48:33.930Z,1.97
2023-04-09T12:51:04.182Z,2.13
2023-04-09T12:53:35.943Z,2.67
2023-04-09T12:56:05.404Z,3.67
2023-04-09T12:58:33.395Z,1.53
2023-04-09T13:01:08.668Z,4.50
2023-04-09T13:03:36.797Z,5.90
2023-04-09T13:06:07.324Z,2.17
2023-04-09T13:08:36.932Z,2.67
2023-04-09T13:11:06.666Z,1.58
2023-04-09T13:13:34.611Z,2.13
2023-04-09T13:16:02.590Z,3.97
2023-04-09T13:18:32.559Z,1.07
2023-04-09T13:21:00.432Z,1.88
2023-04-09T13:23:30.037Z,2.30
2023-04-09T13:25:58.875Z,1.40
2023-04-09T13:28:28.062Z,4.07
2023-04-09T13:30:58.721Z,3.60
2023-04-09T13:33:26.634Z,3.13
2023-04-09T13:35:54.540Z,1.93
2023-04-09T13:38:24.234Z,3.80
2023-04-09T13:40:52.029Z,3.00
2023-04-09T13:43:29.680Z,1.13
2023-04-09T13:45:58.819Z,1.10
2023-04-09T13:48:28.683Z,1.93
2023-04-09T13:50:56.738Z,2.35
2023-04-09T13:53:25.219Z,2.33
2023-04-09T13:55:56.469Z,3.73
2023-04-09T13:58:26.296Z,2.57
2023-04-09T14:00:54.084Z,6.50
2023-04-09T14:03:23.443Z,3.60
2023-04-09T14:05:53.307Z,1.47
2023-04-09T14:08:21.430Z,2.55
2023-04-09T14:10:49.283Z,2.53
2023-04-09T14:13:17.205Z,2.57
2023-04-09T14:15:45.407Z,1.90
2023-04-09T14:18:20.321Z,2.57
2023-04-09T14:20:49.556Z,5.93
2023-04-09T14:23:17.315Z,2.07
2023-04-09T14:25:45.920Z,1.13
2023-04-09T14:28:13.695Z,3.90
2023-04-09T14:30:41.485Z,2.80
2023-04-09T14:33:15.081Z,1.27
2023-04-09T14:35:42.830Z,1.53
2023-04-09T14:38:11.992Z,2.10
2023-04-09T14:40:41.785Z,1.40
2023-04-09T14:43:09.541Z,1.55
2023-04-09T14:45:37.758Z,2.07
2023-04-09T14:48:07.770Z,2.83
2023-04-09T14:50:36.719Z,2.83
2023-04-09T14:53:07.604Z,4.27
2023-04-09T14:55:39.393Z,2.20
2023-04-09T14:58:08.273Z,1.90
2023-04-09T15:00:38.992Z,2.60
2023-04-09T15:03:09.237Z,2.57
2023-04-09T15:08:05.348Z,2.87
2023-04-09T15:10:35.533Z,1.90
2023-04-09T15:13:04.624Z,6.10
2023-04-09T15:15:34.758Z,2.43
2023-04-09T15:18:06.036Z,3.03
2023-04-09T15:20:37.649Z,4.97
2023-04-09T15:23:05.590Z,1.97
2023-04-09T15:25:35.859Z,1.53
2023-04-09T15:28:07.913Z,2.80
2023-04-09T15:30:38.281Z,3.23
2023-04-09T15:33:10.060Z,2.05
2023-04-09T15:35:37.923Z,1.73
2023-04-09T15:38:05.815Z,2.50
2023-04-09T15:40:35.699Z,1.30
2023-04-09T15:43:04.734Z,2.08
2023-04-09T15:45:34.406Z,6.60
2023-04-09T15:48:05.191Z,2.65
2023-04-09T15:50:32.984Z,5.50
2023-04-09T15:53:02.669Z,4.50
2023-04-09T15:55:35.479Z,4.72
2023-04-09T15:58:05.093Z,3.40
2023-04-09T16:00:34.355Z,3.60
2023-04-09T16:03:02.079Z,3.57
2023-04-09T16:05:31.665Z,3.53
2023-04-09T16:08:01.642Z,2.92
2023-04-09T16:10:29.383Z,5.55
2023-04-09T16:13:01.106Z,4.97
2023-04-09T16:15:28.981Z,3.57
2023-04-09T16:17:58.216Z,4.73
2023-04-09T16:20:31.194Z,5.37
2023-04-09T16:22:58.951Z,5.47
2023-04-09T16:25:26.620Z,5.53
2023-04-09T16:27:58.322Z,5.07
2023-04-09T16:30:26.264Z,5.10
2023-04-09T16:32:54.038Z,4.87
2023-04-09T16:35:27.194Z,5.17
2023-04-09T16:37:54.922Z,4.60
2023-04-09T16:40:24.422Z,4.83
2023-04-09T16:42:54.242Z,5.85
2023-04-09T16:45:22.532Z,4.55
2023-04-09T16:47:53.779Z,3.90
2023-04-09T16:50:23.544Z,5.73
2023-04-09T16:52:51.530Z,6.20
2023-04-09T16:55:21.457Z,6.50
2023-04-09T16:57:49.445Z,4.68
2023-04-09T17:00:18.383Z,6.03
2023-04-09T17:02:46.934Z,9.57
2023-04-09T17:05:16.181Z,5.77
2023-04-09T17:07:45.219Z,6.00
2023-04-09T17:10:13.058Z,8.23
2023-04-09T17:12:40.976Z,7.83
2023-04-09T17:15:10.156Z,7.00
2023-04-09T17:17:38.189Z,5.37
2023-04-09T17:20:07.343Z,7.00
2023-04-09T17:22:35.691Z,6.40
2023-04-09T17:25:04.942Z,6.90
2023-04-09T17:27:32.795Z,5.77
2023-04-09T17:30:00.533Z,5.33
2023-04-09T17:32:28.301Z,8.07
2023-04-09T17:35:01.353Z,4.43
2023-04-09T17:37:29.717Z,5.20
2023-04-09T17:39:57.423Z,6.70
2023-04-09T17:42:30.888Z,5.00
2023-04-09T17:44:59.122Z,10.10
2023-04-09T17:47:27.331Z,8.80
2023-04-09T17:49:55.260Z,8.13
2023-04-09T17:52:23.184Z,4.43
2023-04-09T17:54:52.445Z,10.70
2023-04-09T17:57:20.434Z,8.97
2023-04-09T17:59:49.533Z,9.30
2023-04-09T18:02:17.470Z,7.07
2023-04-09T18:04:49.621Z,20.33
2023-04-09T18:07:17.432Z,5.90
2023-04-09T18:09:45.167Z,12.97
2023-04-09T18:12:16.900Z,7.03
2023-04-09T18:14:44.597Z,7.57
2023-04-09T18:17:15.194Z,10.53
2023-04-09T18:19:48.271Z,13.47
2023-04-09T18:22:16.543Z,11.87
2023-04-09T18:24:44.277Z,7.23
2023-04-09T18:27:16.168Z,7.73
2023-04-09T18:29:46.609Z,9.83
2023-04-09T18:34:47.179Z,9.10
2023-04-09T18:37:15.212Z,6.37
2023-04-09T18:39:43.048Z,9.47
2023-04-09T18:42:15.305Z,11.07
2023-04-09T18:44:43.136Z,7.83
2023-04-09T18:47:11.839Z,6.13
2023-04-09T18:49:43.194Z,10.40
2023-04-09T18:52:11.058Z,12.63
2023-04-09T18:54:39.065Z,13.63
2023-04-09T18:57:07.576Z,25.73
2023-04-09T18:59:35.841Z,19.17
2023-04-09T19:02:04.765Z,19.40
2023-04-09T19:04:36.458Z,11.37
2023-04-09T19:07:06.619Z,18.30
2023-04-09T19:09:37.578Z,16.65
2023-04-09T19:12:08.662Z,18.23
2023-04-09T19:14:36.859Z,14.13
2023-04-09T19:17:06.628Z,19.27
2023-04-09T19:19:34.339Z,20.55
2023-04-09T19:22:02.162Z,18.43
2023-04-09T19:24:33.544Z,17.23
2023-04-09T19:27:08.070Z,19.60
2023-04-09T19:29:36.276Z,17.20
2023-04-09T19:32:04.279Z,15.60
2023-04-09T19:34:32.077Z,24.23
2023-04-09T19:37:04.349Z,12.83
2023-04-09T19:39:33.463Z,17.63
2023-04-09T19:42:02.714Z,14.00
2023-04-09T19:44:33.010Z,13.27
2023-04-09T19:47:00.864Z,20.90
2023-04-09T19:49:29.332Z,13.60
2023-04-09T19:52:01.291Z,15.53
2023-04-09T19:54:29.008Z,15.57
2023-04-09T19:56:58.093Z,14.30
2023-04-09T19:59:30.926Z,13.63
2023-04-09T20:01:59.887Z,16.43
2023-04-09T20:04:30.183Z,13.63
2023-04-09T20:07:00.326Z,15.07
2023-04-09T20:09:29.144Z,14.65
2023-04-09T20:12:06.148Z,20.13
2023-04-09T20:14:38.130Z,25.73
2023-04-09T20:17:06.391Z,20.13
2023-04-09T20:19:44.356Z,22.27
2023-04-09T20:22:12.263Z,21.97
2023-04-09T20:24:40.216Z,23.53
2023-04-09T20:27:13.326Z,21.90
2023-04-09T20:29:41.093Z,16.27
2023-04-09T20:32:08.932Z,21.63
2023-04-09T20:34:38.929Z,18.07
2023-04-09T20:37:06.778Z,17.17
2023-04-09T20:39:34.508Z,23.30
2023-04-09T20:42:02.435Z,32.00
2023-04-09T20:44:31.819Z,22.03
2023-04-09T20:47:01.691Z,21.57
2023-04-09T20:49:29.455Z,20.13
2023-04-09T20:51:57.159Z,25.63
2023-04-09T20:54:27.550Z,19.63
2023-04-09T20:56:55.333Z,19.50
2023-04-09T20:59:23.515Z,25.87
2023-04-09T21:01:55.413Z,22.80
2023-04-09T21:04:24.130Z,21.20
2023-04-09T21:06:51.984Z,17.50
2023-04-09T21:09:21.840Z,20.93
2023-04-09T21:11:49.620Z,21.55
2023-04-09T21:14:17.312Z,10.60
2023-04-09T21:16:47.518Z,13.97
2023-04-09T21:19:18.564Z,13.80
2023-04-09T21:21:46.347Z,19.93
2023-04-09T21:24:16.949Z,13.83
2023-04-09T21:29:22.339Z,12.67
2023-04-09T21:31:52.066Z,18.02
2023-04-09T21:34:21.282Z,15.05
2023-04-09T21:36:51.255Z,13.80
2023-04-09T21:39:20.909Z,18.52
2023-04-09T21:41:48.611Z,15.95
2023-04-09T21:44:19.012Z,15.87
2023-04-09T21:49:17.299Z,17.45
2023-04-09T21:51:48.587Z,11.07
2023-04-09T21:54:18.139Z,15.53
2023-04-09T21:56:46.381Z,13.23
2023-04-09T21:59:16.464Z,9.80
2023-04-09T22:01:49.430Z,15.15
2023-04-09T22:04:18.137Z,11.43
2023-04-09T22:06:47.907Z,13.57
2023-04-09T22:09:15.588Z,14.68
2023-04-09T22:11:46.408Z,13.87
2023-04-09T22:14:17.161Z,15.10
2023-04-09T22:16:44.910Z,18.30
2023-04-09T22:19:15.373Z,18.73
2023-04-09T22:24:15.446Z,18.30
2023-04-09T22:26:48.685Z,24.30
2023-04-09T22:29:16.625Z,22.03
2023-04-09T22:31:44.555Z,20.03
2023-04-09T22:34:21.184Z,17.97
2023-04-09T22:36:49.741Z,16.10
2023-04-09T22:39:23.646Z,15.83
2023-04-09T22:41:51.337Z,23.20
2023-04-09T22:44:19.108Z,21.50
2023-04-09T22:46:50.841Z,17.90
2023-04-09T22:49:20.728Z,20.67
2023-04-09T22:51:48.443Z,18.75
2023-04-09T22:54:18.041Z,22.03
2023-04-09T22:56:48.890Z,16.70
2023-04-09T22:59:17.065Z,19.27
2023-04-09T23:01:47.217Z,15.73
2023-04-09T23:04:19.838Z,13.50
2023-04-09T23:06:47.508Z,16.13
2023-04-09T23:09:15.260Z,13.67
2023-04-09T23:11:44.932Z,15.07
2023-04-09T23:14:14.370Z,14.98
2023-04-09T23:16:42.110Z,14.63
2023-04-09T23:19:14.583Z,16.53
2023-04-09T23:21:42.267Z,19.90
2023-04-09T23:24:09.942Z,15.80
2023-04-09T23:26:41.694Z,12.87
2023-04-09T23:29:09.373Z,21.23
2023-04-09T23:31:38.419Z,13.50
2023-04-09T23:34:10.180Z,11.43
2023-04-09T23:36:37.900Z,13.70
2023-04-09T23:39:05.617Z,12.47
2023-04-09T23:41:38.620Z,13.50
2023-04-09T23:44:06.313Z,13.23
2023-04-09T23:46:34.088Z,12.83
2023-04-09T23:49:06.843Z,13.43
2023-04-09T23:51:34.510Z,11.30
2023-04-09T23:54:03.071Z,11.70
2023-04-09T23:56:34.780Z,12.80
2023-04-09T23:59:02.693Z,12.13
